sensor_id;sensor_type;location;lat;lon;timestamp;P1;durP1;ratioP1;P2;durP2;ratioP2
8268;SDS011;4174;48.304;16.364;2023-11-22T00:04:17;10.33;;;4.20;;
8268;SDS011;4174;48.304;16.364;2023-11-22T00:10:20;10.80;;;4.43;;
8268;SDS011;4174;48.304;16.364;2023-11-22T00:16:23;11.93;;;5.00;;
8268;SDS011;4174;48.304;16.364;2023-11-22T00:22:27;14.20;;;5.53;;
8268;SDS011;4174;48.304;16.364;2023-11-22T00:28:29;14.53;;;6.00;;
8268;SDS011;4174;48.304;16.364;2023-11-22T00:34:34;13.00;;;5.68;;
8268;SDS011;4174;48.304;16.364;2023-11-22T00:40:38;13.32;;;5.70;;
8268;SDS011;4174;48.304;16.364;2023-11-22T00:46:41;12.50;;;5.30;;
8268;SDS011;4174;48.304;16.364;2023-11-22T00:52:46;10.68;;;4.50;;
8268;SDS011;4174;48.304;16.364;2023-11-22T00:58:48;10.50;;;4.10;;
8268;SDS011;4174;48.304;16.364;2023-11-22T01:04:53;9.45;;;3.72;;
8268;SDS011;4174;48.304;16.364;2023-11-22T01:10:56;8.60;;;3.50;;
8268;SDS011;4174;48.304;16.364;2023-11-22T01:17:00;8.43;;;3.43;;
8268;SDS011;4174;48.304;16.364;2023-11-22T01:23:03;9.20;;;3.67;;
8268;SDS011;4174;48.304;16.364;2023-11-22T01:29:07;11.17;;;4.10;;
8268;SDS011;4174;48.304;16.364;2023-11-22T01:35:10;9.73;;;3.90;;
8268;SDS011;4174;48.304;16.364;2023-11-22T01:41:15;9.20;;;3.73;;
8268;SDS011;4174;48.304;16.364;2023-11-22T01:47:18;9.10;;;3.70;;
8268;SDS011;4174;48.304;16.364;2023-11-22T01:53:22;8.33;;;3.43;;
8268;SDS011;4174;48.304;16.364;2023-11-22T01:59:26;8.45;;;3.30;;
8268;SDS011;4174;48.304;16.364;2023-11-22T02:05:28;8.93;;;3.20;;
8268;SDS011;4174;48.304;16.364;2023-11-22T02:11:32;8.17;;;3.13;;
8268;SDS011;4174;48.304;16.364;2023-11-22T02:17:35;8.73;;;3.03;;
8268;SDS011;4174;48.304;16.364;2023-11-22T02:23:37;8.50;;;3.30;;
8268;SDS011;4174;48.304;16.364;2023-11-22T02:29:40;8.50;;;3.50;;
8268;SDS011;4174;48.304;16.364;2023-11-22T02:35:44;8.97;;;3.43;;
8268;SDS011;4174;48.304;16.364;2023-11-22T02:41:49;9.05;;;3.47;;
8268;SDS011;4174;48.304;16.364;2023-11-22T02:47:53;8.48;;;3.65;;
8268;SDS011;4174;48.304;16.364;2023-11-22T02:53:56;8.10;;;3.10;;
8268;SDS011;4174;48.304;16.364;2023-11-22T03:00:00;7.40;;;2.70;;
8268;SDS011;4174;48.304;16.364;2023-11-22T03:06:03;7.40;;;3.00;;
8268;SDS011;4174;48.304;16.364;2023-11-22T03:12:07;7.80;;;2.80;;
8268;SDS011;4174;48.304;16.364;2023-11-22T03:18:11;7.23;;;2.70;;
8268;SDS011;4174;48.304;16.364;2023-11-22T03:24:14;6.60;;;2.70;;
8268;SDS011;4174;48.304;16.364;2023-11-22T03:30:17;7.60;;;2.90;;
8268;SDS011;4174;48.304;16.364;2023-11-22T03:36:20;7.80;;;3.27;;
8268;SDS011;4174;48.304;16.364;2023-11-22T03:42:23;9.07;;;3.15;;
8268;SDS011;4174;48.304;16.364;2023-11-22T03:48:27;7.93;;;3.30;;
8268;SDS011;4174;48.304;16.364;2023-11-22T03:54:30;7.97;;;3.20;;
8268;SDS011;4174;48.304;16.364;2023-11-22T04:00:34;11.10;;;4.10;;
8268;SDS011;4174;48.304;16.364;2023-11-22T04:06:37;8.37;;;3.57;;
8268;SDS011;4174;48.304;16.364;2023-11-22T04:12:41;8.77;;;3.80;;
8268;SDS011;4174;48.304;16.364;2023-11-22T04:18:45;10.50;;;4.47;;
8268;SDS011;4174;48.304;16.364;2023-11-22T04:24:48;10.77;;;4.43;;
8268;SDS011;4174;48.304;16.364;2023-11-22T04:30:52;11.60;;;4.43;;
8268;SDS011;4174;48.304;16.364;2023-11-22T04:36:56;10.00;;;4.07;;
8268;SDS011;4174;48.304;16.364;2023-11-22T04:42:59;10.98;;;4.50;;
8268;SDS011;4174;48.304;16.364;2023-11-22T04:49:03;10.48;;;4.53;;
8268;SDS011;4174;48.304;16.364;2023-11-22T04:55:07;10.43;;;4.70;;
8268;SDS011;4174;48.304;16.364;2023-11-22T05:01:12;11.23;;;4.50;;
8268;SDS011;4174;48.304;16.364;2023-11-22T05:07:15;11.12;;;4.57;;
8268;SDS011;4174;48.304;16.364;2023-11-22T05:13:19;10.23;;;4.50;;
8268;SDS011;4174;48.304;16.364;2023-11-22T05:19:23;10.20;;;4.53;;
8268;SDS011;4174;48.304;16.364;2023-11-22T05:25:26;10.03;;;4.30;;
8268;SDS011;4174;48.304;16.364;2023-11-22T05:31:30;11.27;;;4.60;;
8268;SDS011;4174;48.304;16.364;2023-11-22T05:37:34;10.60;;;4.43;;
8268;SDS011;4174;48.304;16.364;2023-11-22T05:43:37;11.98;;;5.07;;
8268;SDS011;4174;48.304;16.364;2023-11-22T05:49:40;10.88;;;4.37;;
8268;SDS011;4174;48.304;16.364;2023-11-22T05:55:44;15.60;;;4.60;;
8268;SDS011;4174;48.304;16.364;2023-11-22T06:01:48;12.10;;;4.50;;
8268;SDS011;4174;48.304;16.364;2023-11-22T06:07:52;10.43;;;4.15;;
8268;SDS011;4174;48.304;16.364;2023-11-22T06:13:57;10.53;;;4.50;;
8268;SDS011;4174;48.304;16.364;2023-11-22T06:20:00;11.48;;;4.28;;
8268;SDS011;4174;48.304;16.364;2023-11-22T06:26:05;10.85;;;4.20;;
8268;SDS011;4174;48.304;16.364;2023-11-22T06:32:09;9.50;;;3.97;;
8268;SDS011;4174;48.304;16.364;2023-11-22T06:38:12;9.95;;;4.12;;
8268;SDS011;4174;48.304;16.364;2023-11-22T06:44:16;10.73;;;3.77;;
8268;SDS011;4174;48.304;16.364;2023-11-22T06:50:19;9.77;;;4.00;;
8268;SDS011;4174;48.304;16.364;2023-11-22T06:56:23;9.98;;;3.80;;
8268;SDS011;4174;48.304;16.364;2023-11-22T07:02:28;9.90;;;4.10;;
8268;SDS011;4174;48.304;16.364;2023-11-22T07:08:32;10.15;;;3.78;;
8268;SDS011;4174;48.304;16.364;2023-11-22T07:14:35;8.73;;;3.67;;
8268;SDS011;4174;48.304;16.364;2023-11-22T07:20:38;9.40;;;3.90;;
8268;SDS011;4174;48.304;16.364;2023-11-22T07:26:41;9.80;;;4.10;;
8268;SDS011;4174;48.304;16.364;2023-11-22T07:32:45;11.05;;;4.15;;
8268;SDS011;4174;48.304;16.364;2023-11-22T07:38:48;10.97;;;3.90;;
8268;SDS011;4174;48.304;16.364;2023-11-22T07:44:52;9.63;;;3.70;;
8268;SDS011;4174;48.304;16.364;2023-11-22T07:50:55;9.57;;;3.90;;
8268;SDS011;4174;48.304;16.364;2023-11-22T07:57:00;9.38;;;3.75;;
8268;SDS011;4174;48.304;16.364;2023-11-22T08:03:03;10.45;;;3.90;;
8268;SDS011;4174;48.304;16.364;2023-11-22T08:09:07;10.80;;;3.60;;
8268;SDS011;4174;48.304;16.364;2023-11-22T08:15:10;9.65;;;3.97;;
8268;SDS011;4174;48.304;16.364;2023-11-22T08:21:14;11.40;;;4.30;;
8268;SDS011;4174;48.304;16.364;2023-11-22T08:27:17;9.43;;;4.20;;
8268;SDS011;4174;48.304;16.364;2023-11-22T08:33:21;9.90;;;4.30;;
8268;SDS011;4174;48.304;16.364;2023-11-22T08:39:25;13.97;;;4.60;;
8268;SDS011;4174;48.304;16.364;2023-11-22T08:45:29;11.15;;;4.40;;
8268;SDS011;4174;48.304;16.364;2023-11-22T08:51:32;12.02;;;4.70;;
8268;SDS011;4174;48.304;16.364;2023-11-22T08:57:37;11.87;;;4.60;;
8268;SDS011;4174;48.304;16.364;2023-11-22T09:03:39;11.40;;;4.57;;
8268;SDS011;4174;48.304;16.364;2023-11-22T09:09:43;11.37;;;4.53;;
8268;SDS011;4174;48.304;16.364;2023-11-22T09:15:46;9.67;;;4.23;;
8268;SDS011;4174;48.304;16.364;2023-11-22T09:21:50;10.52;;;4.40;;
8268;SDS011;4174;48.304;16.364;2023-11-22T09:27:53;10.77;;;4.40;;
8268;SDS011;4174;48.304;16.364;2023-11-22T09:33:57;10.15;;;4.20;;
8268;SDS011;4174;48.304;16.364;2023-11-22T09:40:00;10.50;;;4.10;;
8268;SDS011;4174;48.304;16.364;2023-11-22T09:46:04;10.63;;;4.27;;
8268;SDS011;4174;48.304;16.364;2023-11-22T09:52:08;10.00;;;4.20;;
8268;SDS011;4174;48.304;16.364;2023-11-22T09:58:11;10.20;;;4.50;;
8268;SDS011;4174;48.304;16.364;2023-11-22T10:04:14;11.90;;;4.80;;
8268;SDS011;4174;48.304;16.364;2023-11-22T10:10:18;10.33;;;4.27;;
8268;SDS011;4174;48.304;16.364;2023-11-22T10:16:22;11.02;;;4.35;;
8268;SDS011;4174;48.304;16.364;2023-11-22T10:22:26;10.85;;;4.30;;
8268;SDS011;4174;48.304;16.364;2023-11-22T10:28:29;11.13;;;5.03;;
8268;SDS011;4174;48.304;16.364;2023-11-22T10:34:33;10.83;;;4.80;;
8268;SDS011;4174;48.304;16.364;2023-11-22T10:40:37;11.32;;;5.03;;
8268;SDS011;4174;48.304;16.364;2023-11-22T10:46:40;10.80;;;4.80;;
8268;SDS011;4174;48.304;16.364;2023-11-22T10:52:43;12.70;;;5.40;;
8268;SDS011;4174;48.304;16.364;2023-11-22T10:58:46;11.97;;;5.27;;
8268;SDS011;4174;48.304;16.364;2023-11-22T11:04:55;11.38;;;5.20;;
8268;SDS011;4174;48.304;16.364;2023-11-22T11:10:58;12.23;;;5.15;;
8268;SDS011;4174;48.304;16.364;2023-11-22T11:17:01;12.33;;;5.10;;
8268;SDS011;4174;48.304;16.364;2023-11-22T11:23:04;12.77;;;5.37;;
8268;SDS011;4174;48.304;16.364;2023-11-22T11:29:08;12.97;;;5.50;;
8268;SDS011;4174;48.304;16.364;2023-11-22T11:35:11;13.10;;;5.77;;
8268;SDS011;4174;48.304;16.364;2023-11-22T11:41:15;15.80;;;6.30;;
8268;SDS011;4174;48.304;16.364;2023-11-22T11:47:18;14.43;;;6.43;;
8268;SDS011;4174;48.304;16.364;2023-11-22T11:53:22;14.48;;;6.68;;
8268;SDS011;4174;48.304;16.364;2023-11-22T11:59:26;16.23;;;6.60;;
8268;SDS011;4174;48.304;16.364;2023-11-22T12:05:30;13.63;;;6.40;;
8268;SDS011;4174;48.304;16.364;2023-11-22T12:11:33;13.63;;;6.50;;
8268;SDS011;4174;48.304;16.364;2023-11-22T12:17:37;16.03;;;7.23;;
8268;SDS011;4174;48.304;16.364;2023-11-22T12:23:41;16.80;;;7.40;;
8268;SDS011;4174;48.304;16.364;2023-11-22T12:29:43;16.20;;;7.50;;
8268;SDS011;4174;48.304;16.364;2023-11-22T12:35:46;15.37;;;6.90;;
8268;SDS011;4174;48.304;16.364;2023-11-22T12:41:50;15.95;;;6.85;;
8268;SDS011;4174;48.304;16.364;2023-11-22T12:47:52;15.43;;;7.00;;
8268;SDS011;4174;48.304;16.364;2023-11-22T12:53:54;15.00;;;6.57;;
8268;SDS011;4174;48.304;16.364;2023-11-22T12:59:58;15.10;;;6.40;;
8268;SDS011;4174;48.304;16.364;2023-11-22T13:06:01;14.63;;;6.60;;
8268;SDS011;4174;48.304;16.364;2023-11-22T13:12:06;14.63;;;7.00;;
8268;SDS011;4174;48.304;16.364;2023-11-22T13:18:09;15.47;;;6.93;;
8268;SDS011;4174;48.304;16.364;2023-11-22T13:24:14;19.25;;;7.30;;
8268;SDS011;4174;48.304;16.364;2023-11-22T13:30:17;15.17;;;7.30;;
8268;SDS011;4174;48.304;16.364;2023-11-22T13:36:20;17.80;;;7.90;;
8268;SDS011;4174;48.304;16.364;2023-11-22T13:42:23;15.63;;;7.03;;
8268;SDS011;4174;48.304;16.364;2023-11-22T13:48:27;13.88;;;6.70;;
8268;SDS011;4174;48.304;16.364;2023-11-22T13:54:30;16.13;;;6.90;;
8268;SDS011;4174;48.304;16.364;2023-11-22T14:00:33;15.10;;;6.47;;
8268;SDS011;4174;48.304;16.364;2023-11-22T14:06:37;15.93;;;6.90;;
8268;SDS011;4174;48.304;16.364;2023-11-22T14:12:42;15.23;;;6.60;;
8268;SDS011;4174;48.304;16.364;2023-11-22T14:18:44;14.73;;;6.40;;
8268;SDS011;4174;48.304;16.364;2023-11-22T14:24:49;16.20;;;6.53;;
8268;SDS011;4174;48.304;16.364;2023-11-22T14:30:52;14.90;;;6.70;;
8268;SDS011;4174;48.304;16.364;2023-11-22T14:36:56;14.87;;;6.40;;
8268;SDS011;4174;48.304;16.364;2023-11-22T14:42:59;14.03;;;6.20;;
8268;SDS011;4174;48.304;16.364;2023-11-22T14:49:03;13.93;;;6.03;;
8268;SDS011;4174;48.304;16.364;2023-11-22T14:55:06;14.03;;;6.40;;
8268;SDS011;4174;48.304;16.364;2023-11-22T15:01:10;15.50;;;6.57;;
8268;SDS011;4174;48.304;16.364;2023-11-22T15:07:13;15.57;;;6.23;;
8268;SDS011;4174;48.304;16.364;2023-11-22T15:13:17;17.00;;;7.30;;
8268;SDS011;4174;48.304;16.364;2023-11-22T15:19:21;16.33;;;7.10;;
8268;SDS011;4174;48.304;16.364;2023-11-22T15:25:24;16.00;;;6.50;;
8268;SDS011;4174;48.304;16.364;2023-11-22T15:31:29;16.33;;;6.80;;
8268;SDS011;4174;48.304;16.364;2023-11-22T15:37:34;15.93;;;6.70;;
8268;SDS011;4174;48.304;16.364;2023-11-22T15:43:37;17.83;;;6.97;;
8268;SDS011;4174;48.304;16.364;2023-11-22T15:49:41;18.02;;;7.55;;
8268;SDS011;4174;48.304;16.364;2023-11-22T15:55:44;17.87;;;7.35;;
8268;SDS011;4174;48.304;16.364;2023-11-22T16:01:48;17.50;;;7.47;;
8268;SDS011;4174;48.304;16.364;2023-11-22T16:07:51;17.83;;;7.10;;
8268;SDS011;4174;48.304;16.364;2023-11-22T16:13:54;17.17;;;7.47;;
8268;SDS011;4174;48.304;16.364;2023-11-22T16:19:58;18.37;;;7.90;;
8268;SDS011;4174;48.304;16.364;2023-11-22T16:26:02;20.70;;;8.33;;
8268;SDS011;4174;48.304;16.364;2023-11-22T16:32:04;19.27;;;8.53;;
8268;SDS011;4174;48.304;16.364;2023-11-22T16:38:09;20.98;;;9.05;;
8268;SDS011;4174;48.304;16.364;2023-11-22T16:44:13;22.75;;;9.48;;
8268;SDS011;4174;48.304;16.364;2023-11-22T16:50:16;22.47;;;9.23;;
8268;SDS011;4174;48.304;16.364;2023-11-22T16:56:20;21.40;;;9.20;;
8268;SDS011;4174;48.304;16.364;2023-11-22T17:02:25;22.50;;;9.30;;
8268;SDS011;4174;48.304;16.364;2023-11-22T17:08:29;22.40;;;9.40;;
8268;SDS011;4174;48.304;16.364;2023-11-22T17:14:32;22.08;;;9.32;;
8268;SDS011;4174;48.304;16.364;2023-11-22T17:20:36;22.17;;;9.73;;
8268;SDS011;4174;48.304;16.364;2023-11-22T17:26:39;22.90;;;10.07;;
8268;SDS011;4174;48.304;16.364;2023-11-22T17:32:43;23.50;;;9.83;;
8268;SDS011;4174;48.304;16.364;2023-11-22T17:38:47;23.85;;;9.77;;
8268;SDS011;4174;48.304;16.364;2023-11-22T17:44:51;23.70;;;9.80;;
8268;SDS011;4174;48.304;16.364;2023-11-22T17:50:54;19.63;;;8.53;;
8268;SDS011;4174;48.304;16.364;2023-11-22T17:56:57;22.37;;;9.70;;
8268;SDS011;4174;48.304;16.364;2023-11-22T18:03:01;21.90;;;9.40;;
8268;SDS011;4174;48.304;16.364;2023-11-22T18:09:04;22.30;;;8.63;;
8268;SDS011;4174;48.304;16.364;2023-11-22T18:15:07;21.90;;;8.67;;
8268;SDS011;4174;48.304;16.364;2023-11-22T18:21:15;22.97;;;8.70;;
8268;SDS011;4174;48.304;16.364;2023-11-22T18:27:19;23.30;;;8.73;;
8268;SDS011;4174;48.304;16.364;2023-11-22T18:33:22;21.97;;;9.10;;
8268;SDS011;4174;48.304;16.364;2023-11-22T18:39:26;23.00;;;9.47;;
8268;SDS011;4174;48.304;16.364;2023-11-22T18:45:29;22.27;;;8.90;;
8268;SDS011;4174;48.304;16.364;2023-11-22T18:51:33;22.85;;;9.35;;
8268;SDS011;4174;48.304;16.364;2023-11-22T18:57:36;23.67;;;10.17;;
8268;SDS011;4174;48.304;16.364;2023-11-22T19:03:39;23.35;;;9.50;;
8268;SDS011;4174;48.304;16.364;2023-11-22T19:09:43;25.17;;;9.57;;
8268;SDS011;4174;48.304;16.364;2023-11-22T19:15:48;26.40;;;10.45;;
8268;SDS011;4174;48.304;16.364;2023-11-22T19:21:52;23.47;;;9.57;;
8268;SDS011;4174;48.304;16.364;2023-11-22T19:27:56;24.03;;;9.23;;
8268;SDS011;4174;48.304;16.364;2023-11-22T19:33:59;24.12;;;9.30;;
8268;SDS011;4174;48.304;16.364;2023-11-22T19:40:03;23.17;;;9.60;;
8268;SDS011;4174;48.304;16.364;2023-11-22T19:46:08;27.30;;;10.10;;
8268;SDS011;4174;48.304;16.364;2023-11-22T19:52:13;24.60;;;10.10;;
8268;SDS011;4174;48.304;16.364;2023-11-22T19:58:17;25.88;;;11.00;;
8268;SDS011;4174;48.304;16.364;2023-11-22T20:04:20;28.30;;;11.35;;
8268;SDS011;4174;48.304;16.364;2023-11-22T20:10:23;27.60;;;11.53;;
8268;SDS011;4174;48.304;16.364;2023-11-22T20:16:28;30.57;;;11.60;;
8268;SDS011;4174;48.304;16.364;2023-11-22T20:22:32;27.17;;;11.13;;
8268;SDS011;4174;48.304;16.364;2023-11-22T20:28:36;25.80;;;10.90;;
8268;SDS011;4174;48.304;16.364;2023-11-22T20:34:40;28.60;;;11.15;;
8268;SDS011;4174;48.304;16.364;2023-11-22T20:40:43;27.62;;;10.82;;
8268;SDS011;4174;48.304;16.364;2023-11-22T20:46:47;27.33;;;10.93;;
8268;SDS011;4174;48.304;16.364;2023-11-22T20:52:51;28.38;;;11.00;;
8268;SDS011;4174;48.304;16.364;2023-11-22T20:58:54;27.90;;;10.73;;
8268;SDS011;4174;48.304;16.364;2023-11-22T21:04:58;26.80;;;10.50;;
8268;SDS011;4174;48.304;16.364;2023-11-22T21:11:01;25.33;;;10.60;;
8268;SDS011;4174;48.304;16.364;2023-11-22T21:17:05;28.83;;;10.50;;
8268;SDS011;4174;48.304;16.364;2023-11-22T21:23:09;27.27;;;11.13;;
8268;SDS011;4174;48.304;16.364;2023-11-22T21:29:13;30.45;;;11.40;;
8268;SDS011;4174;48.304;16.364;2023-11-22T21:35:17;28.60;;;11.20;;
8268;SDS011;4174;48.304;16.364;2023-11-22T21:41:20;27.70;;;10.70;;
8268;SDS011;4174;48.304;16.364;2023-11-22T21:47:24;28.33;;;11.00;;
8268;SDS011;4174;48.304;16.364;2023-11-22T21:53:27;26.10;;;9.83;;
8268;SDS011;4174;48.304;16.364;2023-11-22T21:59:31;26.90;;;10.32;;
8268;SDS011;4174;48.304;16.364;2023-11-22T22:05:36;28.80;;;10.77;;
8268;SDS011;4174;48.304;16.364;2023-11-22T22:11:39;25.55;;;10.20;;
8268;SDS011;4174;48.304;16.364;2023-11-22T22:17:43;27.03;;;10.00;;
8268;SDS011;4174;48.304;16.364;2023-11-22T22:23:47;25.98;;;10.10;;
8268;SDS011;4174;48.304;16.364;2023-11-22T22:29:50;24.50;;;10.10;;
8268;SDS011;4174;48.304;16.364;2023-11-22T22:35:54;27.60;;;10.20;;
8268;SDS011;4174;48.304;16.364;2023-11-22T22:41:57;24.67;;;9.47;;
8268;SDS011;4174;48.304;16.364;2023-11-22T22:48:03;25.60;;;9.90;;
8268;SDS011;4174;48.304;16.364;2023-11-22T22:54:08;27.60;;;9.87;;
8268;SDS011;4174;48.304;16.364;2023-11-22T23:00:13;27.07;;;10.07;;
8268;SDS011;4174;48.304;16.364;2023-11-22T23:06:24;27.30;;;10.07;;
8268;SDS011;4174;48.304;16.364;2023-11-22T23:12:27;24.83;;;9.30;;
8268;SDS011;4174;48.304;16.364;2023-11-22T23:18:31;25.87;;;9.57;;
8268;SDS011;4174;48.304;16.364;2023-11-22T23:24:35;26.58;;;10.40;;
8268;SDS011;4174;48.304;16.364;2023-11-22T23:30:39;26.52;;;9.60;;
8268;SDS011;4174;48.304;16.364;2023-11-22T23:36:43;23.20;;;9.10;;
8268;SDS011;4174;48.304;16.364;2023-11-22T23:42:46;25.23;;;9.07;;
8268;SDS011;4174;48.304;16.364;2023-11-22T23:48:49;24.97;;;9.10;;
8268;SDS011;4174;48.304;16.364;2023-11-22T23:54:53;23.37;;;9.17;;
